sensor_id;sensor_type;location;lat;lon;timestamp;pressure;altitude;pressure_sealevel;temperature;humidity
47897;BME280;39629;51.400;5.494;2023-06-26T00:01:06;101083.97;;;19.27;100.00
47897;BME280;39629;51.400;5.494;2023-06-26T00:06:09;101088.47;;;19.25;100.00
47897;BME280;39629;51.400;5.494;2023-06-26T00:11:11;101095.16;;;19.38;100.00
47897;BME280;39629;51.400;5.494;2023-06-26T00:16:12;101091.75;;;19.58;100.00
47897;BME280;39629;51.400;5.494;2023-06-26T00:21:15;101089.41;;;19.74;100.00
47897;BME280;39629;51.400;5.494;2023-06-26T00:26:17;101079.88;;;19.91;100.00
47897;BME280;39629;51.400;5.494;2023-06-26T00:31:18;101076.38;;;20.13;100.00
47897;BME280;39629;51.400;5.494;2023-06-26T00:36:22;101078.97;;;20.14;100.00
47897;BME280;39629;51.400;5.494;2023-06-26T00:41:24;101088.06;;;20.10;100.00
47897;BME280;39629;51.400;5.494;2023-06-26T00:46:25;101077.41;;;20.08;100.00
47897;BME280;39629;51.400;5.494;2023-06-26T00:51:29;101077.59;;;20.04;100.00
47897;BME280;39629;51.400;5.494;2023-06-26T00:56:31;101079.75;;;20.18;100.00
47897;BME280;39629;51.400;5.494;2023-06-26T01:01:33;101084.97;;;20.21;100.00
47897;BME280;39629;51.400;5.494;2023-06-26T01:06:36;101088.38;;;20.48;100.00
47897;BME280;39629;51.400;5.494;2023-06-26T01:11:38;101087.88;;;20.38;100.00
47897;BME280;39629;51.400;5.494;2023-06-26T01:16:40;101096.91;;;20.58;100.00
47897;BME280;39629;51.400;5.494;2023-06-26T01:21:50;101101.97;;;20.64;100.00
47897;BME280;39629;51.400;5.494;2023-06-26T01:26:55;101103.78;;;20.64;100.00
47897;BME280;39629;51.400;5.494;2023-06-26T01:31:57;101096.97;;;20.56;100.00
47897;BME280;39629;51.400;5.494;2023-06-26T01:36:59;101100.06;;;20.68;100.00
47897;BME280;39629;51.400;5.494;2023-06-26T01:42:02;101113.63;;;20.63;100.00
47897;BME280;39629;51.400;5.494;2023-06-26T01:47:04;101116.38;;;20.62;100.00
47897;BME280;39629;51.400;5.494;2023-06-26T01:52:09;101119.34;;;20.54;100.00
47897;BME280;39629;51.400;5.494;2023-06-26T01:57:17;101122.09;;;20.52;100.00
47897;BME280;39629;51.400;5.494;2023-06-26T02:02:20;101134.47;;;20.55;100.00
47897;BME280;39629;51.400;5.494;2023-06-26T02:07:22;101142.78;;;20.47;100.00
47897;BME280;39629;51.400;5.494;2023-06-26T02:12:24;101152.53;;;20.48;100.00
47897;BME280;39629;51.400;5.494;2023-06-26T02:17:26;101143.31;;;20.33;100.00
47897;BME280;39629;51.400;5.494;2023-06-26T02:22:29;101141.13;;;20.19;100.00
47897;BME280;39629;51.400;5.494;2023-06-26T02:27:32;101149.09;;;20.21;100.00
47897;BME280;39629;51.400;5.494;2023-06-26T02:32:33;101147.94;;;20.04;100.00
47897;BME280;39629;51.400;5.494;2023-06-26T02:37:35;101146.47;;;19.96;100.00
47897;BME280;39629;51.400;5.494;2023-06-26T02:42:38;101150.53;;;19.82;100.00
47897;BME280;39629;51.400;5.494;2023-06-26T02:47:40;101150.25;;;19.90;100.00
47897;BME280;39629;51.400;5.494;2023-06-26T02:52:43;101157.69;;;19.82;100.00
47897;BME280;39629;51.400;5.494;2023-06-26T02:57:50;101162.34;;;19.75;100.00
47897;BME280;39629;51.400;5.494;2023-06-26T03:02:51;101172.63;;;19.62;100.00
47897;BME280;39629;51.400;5.494;2023-06-26T03:07:54;101178.38;;;19.50;100.00
47897;BME280;39629;51.400;5.494;2023-06-26T03:12:57;101179.69;;;19.38;100.00
47897;BME280;39629;51.400;5.494;2023-06-26T03:17:59;101177.34;;;19.27;100.00
47897;BME280;39629;51.400;5.494;2023-06-26T03:23:03;101183.38;;;19.32;100.00
47897;BME280;39629;51.400;5.494;2023-06-26T03:28:06;101188.72;;;19.32;100.00
47897;BME280;39629;51.400;5.494;2023-06-26T03:33:09;101185.47;;;19.24;100.00
47897;BME280;39629;51.400;5.494;2023-06-26T03:38:11;101186.56;;;19.17;100.00
47897;BME280;39629;51.400;5.494;2023-06-26T03:43:15;101200.19;;;19.09;100.00
47897;BME280;39629;51.400;5.494;2023-06-26T03:48:32;101202.91;;;19.07;100.00
47897;BME280;39629;51.400;5.494;2023-06-26T03:53:33;101206.59;;;19.03;100.00
47897;BME280;39629;51.400;5.494;2023-06-26T03:58:36;101202.16;;;19.02;100.00
47897;BME280;39629;51.400;5.494;2023-06-26T04:03:38;101205.03;;;18.96;100.00
47897;BME280;39629;51.400;5.494;2023-06-26T04:08:40;101225.53;;;18.94;100.00
47897;BME280;39629;51.400;5.494;2023-06-26T04:13:43;101232.63;;;18.95;100.00
47897;BME280;39629;51.400;5.494;2023-06-26T04:18:44;101236.94;;;18.99;100.00
47897;BME280;39629;51.400;5.494;2023-06-26T04:23:46;101247.31;;;19.08;100.00
47897;BME280;39629;51.400;5.494;2023-06-26T04:28:49;101248.19;;;19.09;100.00
47897;BME280;39629;51.400;5.494;2023-06-26T04:33:50;101252.63;;;19.08;100.00
47897;BME280;39629;51.400;5.494;2023-06-26T04:38:55;101252.56;;;19.12;100.00
47897;BME280;39629;51.400;5.494;2023-06-26T04:43:58;101260.69;;;19.35;100.00
47897;BME280;39629;51.400;5.494;2023-06-26T04:48:59;101251.97;;;19.84;100.00
47897;BME280;39629;51.400;5.494;2023-06-26T04:54:03;101263.31;;;20.16;100.00
47897;BME280;39629;51.400;5.494;2023-06-26T04:59:06;101282.22;;;20.09;100.00
47897;BME280;39629;51.400;5.494;2023-06-26T05:04:09;101282.41;;;20.30;100.00
47897;BME280;39629;51.400;5.494;2023-06-26T05:09:10;101274.84;;;20.89;100.00
47897;BME280;39629;51.400;5.494;2023-06-26T05:14:13;101277.53;;;20.65;100.00
47897;BME280;39629;51.400;5.494;2023-06-26T05:19:15;101283.69;;;20.18;100.00
47897;BME280;39629;51.400;5.494;2023-06-26T05:24:17;101294.03;;;20.53;100.00
47897;BME280;39629;51.400;5.494;2023-06-26T05:29:21;101297.25;;;21.32;100.00
47897;BME280;39629;51.400;5.494;2023-06-26T05:34:23;101296.66;;;20.54;100.00
47897;BME280;39629;51.400;5.494;2023-06-26T05:39:26;101302.56;;;21.34;100.00
47897;BME280;39629;51.400;5.494;2023-06-26T05:44:29;101311.03;;;21.23;100.00
47897;BME280;39629;51.400;5.494;2023-06-26T05:49:30;101316.00;;;21.32;100.00
47897;BME280;39629;51.400;5.494;2023-06-26T05:54:32;101323.25;;;21.95;100.00
47897;BME280;39629;51.400;5.494;2023-06-26T05:59:36;101322.22;;;22.20;100.00
47897;BME280;39629;51.400;5.494;2023-06-26T06:04:40;101328.66;;;22.55;100.00
47897;BME280;39629;51.400;5.494;2023-06-26T06:09:42;101342.53;;;22.65;100.00
47897;BME280;39629;51.400;5.494;2023-06-26T06:14:45;101338.78;;;23.64;100.00
47897;BME280;39629;51.400;5.494;2023-06-26T06:19:46;101341.28;;;23.12;100.00
47897;BME280;39629;51.400;5.494;2023-06-26T06:24:49;101350.59;;;23.79;100.00
47897;BME280;39629;51.400;5.494;2023-06-26T06:29:52;101366.38;;;23.49;100.00
47897;BME280;39629;51.400;5.494;2023-06-26T06:34:54;101375.66;;;23.42;100.00
47897;BME280;39629;51.400;5.494;2023-06-26T06:39:55;101383.56;;;24.01;100.00
47897;BME280;39629;51.400;5.494;2023-06-26T06:44:58;101365.47;;;24.22;100.00
47897;BME280;39629;51.400;5.494;2023-06-26T06:50:00;101376.88;;;23.54;100.00
47897;BME280;39629;51.400;5.494;2023-06-26T06:55:08;101387.78;;;24.24;100.00
47897;BME280;39629;51.400;5.494;2023-06-26T07:00:13;101393.44;;;23.44;100.00
47897;BME280;39629;51.400;5.494;2023-06-26T07:05:16;101397.75;;;23.10;100.00
47897;BME280;39629;51.400;5.494;2023-06-26T07:10:18;101402.47;;;23.43;100.00
47897;BME280;39629;51.400;5.494;2023-06-26T07:15:21;101420.09;;;23.68;100.00
47897;BME280;39629;51.400;5.494;2023-06-26T07:20:22;101424.06;;;24.85;100.00
47897;BME280;39629;51.400;5.494;2023-06-26T07:25:24;101423.97;;;23.99;100.00
47897;BME280;39629;51.400;5.494;2023-06-26T07:30:27;101436.72;;;24.83;100.00
47897;BME280;39629;51.400;5.494;2023-06-26T07:35:28;101434.63;;;23.26;100.00
47897;BME280;39629;51.400;5.494;2023-06-26T07:40:30;101445.13;;;23.49;100.00
47897;BME280;39629;51.400;5.494;2023-06-26T07:45:33;101446.97;;;24.41;100.00
47897;BME280;39629;51.400;5.494;2023-06-26T07:50:35;101462.50;;;23.61;100.00
47897;BME280;39629;51.400;5.494;2023-06-26T07:55:36;101464.59;;;23.36;100.00
47897;BME280;39629;51.400;5.494;2023-06-26T08:00:40;101473.25;;;24.54;100.00
47897;BME280;39629;51.400;5.494;2023-06-26T08:05:41;101474.75;;;23.86;100.00
47897;BME280;39629;51.400;5.494;2023-06-26T08:10:44;101473.22;;;23.23;100.00
47897;BME280;39629;51.400;5.494;2023-06-26T08:15:47;101479.50;;;22.83;100.00
47897;BME280;39629;51.400;5.494;2023-06-26T08:20:48;101481.59;;;24.30;100.00
47897;BME280;39629;51.400;5.494;2023-06-26T08:25:50;101479.13;;;23.89;100.00
47897;BME280;39629;51.400;5.494;2023-06-26T08:30:53;101481.34;;;23.60;100.00
47897;BME280;39629;51.400;5.494;2023-06-26T08:35:54;101488.75;;;23.75;100.00
47897;BME280;39629;51.400;5.494;2023-06-26T08:40:56;101498.28;;;24.37;100.00
47897;BME280;39629;51.400;5.494;2023-06-26T08:45:59;101493.66;;;24.75;100.00
47897;BME280;39629;51.400;5.494;2023-06-26T08:51:05;101492.06;;;25.40;100.00
47897;BME280;39629;51.400;5.494;2023-06-26T08:56:08;101499.34;;;24.87;100.00
47897;BME280;39629;51.400;5.494;2023-06-26T09:01:11;101515.16;;;24.93;100.00
47897;BME280;39629;51.400;5.494;2023-06-26T09:06:13;101499.03;;;25.44;100.00
47897;BME280;39629;51.400;5.494;2023-06-26T09:11:15;101512.44;;;25.61;92.16
47897;BME280;39629;51.400;5.494;2023-06-26T09:16:24;101513.25;;;25.95;90.12
47897;BME280;39629;51.400;5.494;2023-06-26T09:21:26;101511.63;;;25.59;89.12
47897;BME280;39629;51.400;5.494;2023-06-26T09:26:28;101524.19;;;26.08;85.08
47897;BME280;39629;51.400;5.494;2023-06-26T09:31:32;101519.56;;;26.42;75.36
47897;BME280;39629;51.400;5.494;2023-06-26T09:36:33;101533.41;;;26.04;53.24
47897;BME280;39629;51.400;5.494;2023-06-26T09:41:36;101544.53;;;26.62;52.98
47897;BME280;39629;51.400;5.494;2023-06-26T09:46:40;101545.59;;;26.43;50.80
47897;BME280;39629;51.400;5.494;2023-06-26T09:51:42;101556.91;;;26.18;46.35
47897;BME280;39629;51.400;5.494;2023-06-26T09:56:43;101559.16;;;26.58;46.74
47897;BME280;39629;51.400;5.494;2023-06-26T10:01:46;101563.19;;;25.20;46.97
47897;BME280;39629;51.400;5.494;2023-06-26T10:06:49;101555.69;;;26.24;48.28
47897;BME280;39629;51.400;5.494;2023-06-26T10:11:56;101565.28;;;27.06;45.13
47897;BME280;39629;51.400;5.494;2023-06-26T10:17:01;101567.97;;;26.13;43.06
47897;BME280;39629;51.400;5.494;2023-06-26T10:22:04;101571.38;;;26.01;44.55
47897;BME280;39629;51.400;5.494;2023-06-26T10:27:09;101569.25;;;26.22;40.08
47897;BME280;39629;51.400;5.494;2023-06-26T10:32:15;101578.81;;;25.80;38.17
47897;BME280;39629;51.400;5.494;2023-06-26T10:37:17;101567.59;;;26.82;39.21
47897;BME280;39629;51.400;5.494;2023-06-26T10:42:19;101585.78;;;26.32;38.55
47897;BME280;39629;51.400;5.494;2023-06-26T10:47:32;101578.16;;;26.24;40.09
47897;BME280;39629;51.400;5.494;2023-06-26T10:52:36;101608.94;;;25.37;41.04
47897;BME280;39629;51.400;5.494;2023-06-26T10:57:38;101596.94;;;25.27;41.99
47897;BME280;39629;51.400;5.494;2023-06-26T11:02:50;101601.22;;;25.98;41.99
47897;BME280;39629;51.400;5.494;2023-06-26T11:08:04;101597.31;;;26.19;38.44
47897;BME280;39629;51.400;5.494;2023-06-26T11:13:06;101604.75;;;24.96;41.43
47897;BME280;39629;51.400;5.494;2023-06-26T11:18:09;101604.06;;;24.74;41.66
47897;BME280;39629;51.400;5.494;2023-06-26T11:23:11;101623.34;;;24.47;37.92
47897;BME280;39629;51.400;5.494;2023-06-26T11:28:13;101612.09;;;25.45;40.42
47897;BME280;39629;51.400;5.494;2023-06-26T11:33:16;101617.88;;;25.89;39.95
47897;BME280;39629;51.400;5.494;2023-06-26T11:38:18;101638.03;;;24.59;42.62
47897;BME280;39629;51.400;5.494;2023-06-26T11:43:20;101631.78;;;24.20;42.45
47897;BME280;39629;51.400;5.494;2023-06-26T11:48:25;101637.88;;;25.84;41.70
47897;BME280;39629;51.400;5.494;2023-06-26T11:53:26;101671.94;;;24.04;41.72
47897;BME280;39629;51.400;5.494;2023-06-26T11:58:28;101668.47;;;24.96;42.44
47897;BME280;39629;51.400;5.494;2023-06-26T12:03:31;101667.97;;;25.59;40.98
47897;BME280;39629;51.400;5.494;2023-06-26T12:08:33;101673.13;;;24.17;43.38
47897;BME280;39629;51.400;5.494;2023-06-26T12:13:35;101665.75;;;24.97;42.91
47897;BME280;39629;51.400;5.494;2023-06-26T12:18:38;101688.53;;;25.78;41.38
47897;BME280;39629;51.400;5.494;2023-06-26T12:23:40;101674.56;;;25.54;43.58
47897;BME280;39629;51.400;5.494;2023-06-26T12:28:44;101666.38;;;27.02;39.42
47897;BME280;39629;51.400;5.494;2023-06-26T12:33:48;101680.53;;;26.43;40.23
47897;BME280;39629;51.400;5.494;2023-06-26T12:38:52;101670.50;;;27.83;38.21
47897;BME280;39629;51.400;5.494;2023-06-26T12:43:55;101687.38;;;26.33;37.45
47897;BME280;39629;51.400;5.494;2023-06-26T12:48:59;101688.34;;;25.30;38.71
47897;BME280;39629;51.400;5.494;2023-06-26T12:54:02;101688.63;;;25.06;38.18
47897;BME280;39629;51.400;5.494;2023-06-26T12:59:04;101690.84;;;24.98;38.42
47897;BME280;39629;51.400;5.494;2023-06-26T13:04:06;101683.19;;;25.60;38.14
47897;BME280;39629;51.400;5.494;2023-06-26T13:09:09;101670.78;;;26.57;37.05
47897;BME280;39629;51.400;5.494;2023-06-26T13:14:10;101682.63;;;27.16;35.65
47897;BME280;39629;51.400;5.494;2023-06-26T13:19:13;101687.84;;;26.73;36.49
47897;BME280;39629;51.400;5.494;2023-06-26T13:24:15;101682.44;;;26.41;35.64
47897;BME280;39629;51.400;5.494;2023-06-26T13:29:16;101678.97;;;26.39;36.35
47897;BME280;39629;51.400;5.494;2023-06-26T13:34:22;101704.19;;;25.71;36.31
47897;BME280;39629;51.400;5.494;2023-06-26T13:39:24;101699.53;;;25.40;38.28
47897;BME280;39629;51.400;5.494;2023-06-26T13:44:26;101697.94;;;25.35;39.52
47897;BME280;39629;51.400;5.494;2023-06-26T13:49:29;101696.63;;;25.08;39.88
47897;BME280;39629;51.400;5.494;2023-06-26T13:54:30;101696.78;;;26.42;37.86
47897;BME280;39629;51.400;5.494;2023-06-26T13:59:32;101700.56;;;26.06;37.93
47897;BME280;39629;51.400;5.494;2023-06-26T14:04:35;101709.34;;;25.04;37.71
47897;BME280;39629;51.400;5.494;2023-06-26T14:09:37;101712.94;;;24.49;39.35
47897;BME280;39629;51.400;5.494;2023-06-26T14:14:38;101726.25;;;24.12;41.94
47897;BME280;39629;51.400;5.494;2023-06-26T14:19:41;101728.16;;;24.10;39.79
47897;BME280;39629;51.400;5.494;2023-06-26T14:24:43;101721.06;;;24.66;38.74
47897;BME280;39629;51.400;5.494;2023-06-26T14:29:45;101721.97;;;26.90;37.75
47897;BME280;39629;51.400;5.494;2023-06-26T14:34:47;101735.03;;;25.83;36.82
47897;BME280;39629;51.400;5.494;2023-06-26T14:39:49;101726.88;;;26.83;37.89
47897;BME280;39629;51.400;5.494;2023-06-26T14:44:51;101719.56;;;25.34;38.08
47897;BME280;39629;51.400;5.494;2023-06-26T14:49:53;101728.44;;;24.99;39.39
47897;BME280;39629;51.400;5.494;2023-06-26T14:54:55;101728.28;;;25.92;39.30
47897;BME280;39629;51.400;5.494;2023-06-26T14:59:56;101730.19;;;25.20;39.55
47897;BME280;39629;51.400;5.494;2023-06-26T15:04:59;101731.34;;;25.14;40.02
47897;BME280;39629;51.400;5.494;2023-06-26T15:10:01;101735.03;;;23.76;42.22
47897;BME280;39629;51.400;5.494;2023-06-26T15:15:03;101734.59;;;23.44;42.71
47897;BME280;39629;51.400;5.494;2023-06-26T15:20:07;101739.59;;;23.31;42.06
47897;BME280;39629;51.400;5.494;2023-06-26T15:25:09;101737.50;;;23.18;42.94
47897;BME280;39629;51.400;5.494;2023-06-26T15:30:11;101733.66;;;22.79;41.81
47897;BME280;39629;51.400;5.494;2023-06-26T15:35:14;101734.59;;;22.78;42.17
47897;BME280;39629;51.400;5.494;2023-06-26T15:40:16;101734.53;;;23.03;42.90
47897;BME280;39629;51.400;5.494;2023-06-26T15:45:18;101742.03;;;22.71;42.76
47897;BME280;39629;51.400;5.494;2023-06-26T15:50:24;101737.28;;;22.78;43.27
47897;BME280;39629;51.400;5.494;2023-06-26T15:55:25;101745.66;;;22.46;45.24
47897;BME280;39629;51.400;5.494;2023-06-26T16:00:26;101736.69;;;22.48;45.77
47897;BME280;39629;51.400;5.494;2023-06-26T16:05:29;101735.94;;;22.20;44.79
47897;BME280;39629;51.400;5.494;2023-06-26T16:10:31;101742.78;;;22.04;45.70
47897;BME280;39629;51.400;5.494;2023-06-26T16:15:32;101750.91;;;22.50;46.87
47897;BME280;39629;51.400;5.494;2023-06-26T16:20:35;101751.69;;;22.04;45.77
47897;BME280;39629;51.400;5.494;2023-06-26T16:25:37;101749.66;;;21.86;46.46
47897;BME280;39629;51.400;5.494;2023-06-26T16:30:39;101737.84;;;21.66;46.88
47897;BME280;39629;51.400;5.494;2023-06-26T16:35:42;101748.16;;;22.04;46.64
47897;BME280;39629;51.400;5.494;2023-06-26T16:40:43;101732.47;;;21.66;47.50
47897;BME280;39629;51.400;5.494;2023-06-26T16:45:45;101736.69;;;21.99;48.58
47897;BME280;39629;51.400;5.494;2023-06-26T16:50:48;101726.88;;;21.72;45.49
47897;BME280;39629;51.400;5.494;2023-06-26T16:55:50;101738.72;;;21.92;47.08
47897;BME280;39629;51.400;5.494;2023-06-26T17:00:52;101744.63;;;22.27;47.39
47897;BME280;39629;51.400;5.494;2023-06-26T17:05:55;101741.63;;;21.86;45.18
47897;BME280;39629;51.400;5.494;2023-06-26T17:10:56;101737.50;;;22.01;45.17
47897;BME280;39629;51.400;5.494;2023-06-26T17:15:58;101748.22;;;22.02;44.28
47897;BME280;39629;51.400;5.494;2023-06-26T17:21:01;101741.81;;;22.54;45.48
47897;BME280;39629;51.400;5.494;2023-06-26T17:26:03;101740.72;;;22.36;45.74
47897;BME280;39629;51.400;5.494;2023-06-26T17:31:05;101742.03;;;21.99;46.00
47897;BME280;39629;51.400;5.494;2023-06-26T17:36:08;101747.31;;;22.02;46.42
47897;BME280;39629;51.400;5.494;2023-06-26T17:41:12;101744.44;;;22.32;44.95
47897;BME280;39629;51.400;5.494;2023-06-26T17:46:15;101748.53;;;22.42;44.44
47897;BME280;39629;51.400;5.494;2023-06-26T17:51:18;101738.53;;;22.22;43.46
47897;BME280;39629;51.400;5.494;2023-06-26T17:56:19;101754.81;;;22.17;43.81
47897;BME280;39629;51.400;5.494;2023-06-26T18:01:21;101762.19;;;22.10;45.71
47897;BME280;39629;51.400;5.494;2023-06-26T18:06:23;101755.16;;;22.08;44.63
47897;BME280;39629;51.400;5.494;2023-06-26T18:11:25;101766.38;;;21.92;45.90
47897;BME280;39629;51.400;5.494;2023-06-26T18:16:27;101779.34;;;21.79;45.36
47897;BME280;39629;51.400;5.494;2023-06-26T18:21:30;101790.59;;;21.37;47.46
47897;BME280;39629;51.400;5.494;2023-06-26T18:26:32;101787.50;;;21.23;46.95
47897;BME280;39629;51.400;5.494;2023-06-26T18:31:33;101788.19;;;21.30;47.98
47897;BME280;39629;51.400;5.494;2023-06-26T18:36:36;101787.97;;;21.07;46.28
47897;BME280;39629;51.400;5.494;2023-06-26T18:41:38;101785.34;;;21.06;46.35
47897;BME280;39629;51.400;5.494;2023-06-26T18:46:40;101788.53;;;21.17;46.22
47897;BME280;39629;51.400;5.494;2023-06-26T18:51:44;101793.44;;;21.03;45.88
47897;BME280;39629;51.400;5.494;2023-06-26T18:56:46;101799.22;;;20.89;48.04
47897;BME280;39629;51.400;5.494;2023-06-26T19:01:47;101803.47;;;20.66;49.22
47897;BME280;39629;51.400;5.494;2023-06-26T19:06:51;101802.44;;;20.40;47.88
47897;BME280;39629;51.400;5.494;2023-06-26T19:11:52;101810.03;;;20.23;49.45
47897;BME280;39629;51.400;5.494;2023-06-26T19:16:54;101810.22;;;20.15;49.38
47897;BME280;39629;51.400;5.494;2023-06-26T19:21:57;101817.72;;;20.02;51.16
47897;BME280;39629;51.400;5.494;2023-06-26T19:26:58;101817.22;;;19.86;52.24
47897;BME280;39629;51.400;5.494;2023-06-26T19:32:00;101818.34;;;19.78;52.23
47897;BME280;39629;51.400;5.494;2023-06-26T19:37:03;101817.84;;;19.63;53.57
47897;BME280;39629;51.400;5.494;2023-06-26T19:42:06;101818.09;;;19.52;52.85
47897;BME280;39629;51.400;5.494;2023-06-26T19:47:07;101825.41;;;19.44;54.56
47897;BME280;39629;51.400;5.494;2023-06-26T19:52:10;101831.13;;;19.27;55.70
47897;BME280;39629;51.400;5.494;2023-06-26T19:57:13;101832.97;;;19.23;57.04
47897;BME280;39629;51.400;5.494;2023-06-26T20:02:14;101841.31;;;19.10;56.97
47897;BME280;39629;51.400;5.494;2023-06-26T20:07:17;101845.84;;;19.04;57.23
47897;BME280;39629;51.400;5.494;2023-06-26T20:12:19;101857.56;;;18.97;57.25
47897;BME280;39629;51.400;5.494;2023-06-26T20:17:21;101852.50;;;18.85;58.34
47897;BME280;39629;51.400;5.494;2023-06-26T20:22:24;101856.16;;;18.81;57.17
47897;BME280;39629;51.400;5.494;2023-06-26T20:27:26;101866.22;;;18.66;59.79
47897;BME280;39629;51.400;5.494;2023-06-26T20:32:27;101867.22;;;18.61;59.55
47897;BME280;39629;51.400;5.494;2023-06-26T20:37:30;101865.69;;;18.49;61.36
47897;BME280;39629;51.400;5.494;2023-06-26T20:42:32;101867.88;;;18.25;62.84
47897;BME280;39629;51.400;5.494;2023-06-26T20:47:34;101875.50;;;17.95;71.87
47897;BME280;39629;51.400;5.494;2023-06-26T20:52:43;101874.72;;;17.88;74.42
47897;BME280;39629;51.400;5.494;2023-06-26T20:57:45;101876.81;;;17.69;83.73
47897;BME280;39629;51.400;5.494;2023-06-26T21:02:46;101874.38;;;17.56;95.86
47897;BME280;39629;51.400;5.494;2023-06-26T21:07:49;101881.84;;;17.27;95.31
47897;BME280;39629;51.400;5.494;2023-06-26T21:12:51;101877.53;;;17.17;100.00
47897;BME280;39629;51.400;5.494;2023-06-26T21:17:53;101881.28;;;17.03;100.00
47897;BME280;39629;51.400;5.494;2023-06-26T21:22:56;101883.38;;;16.78;100.00
47897;BME280;39629;51.400;5.494;2023-06-26T21:27:57;101886.16;;;16.67;100.00
47897;BME280;39629;51.400;5.494;2023-06-26T21:32:59;101888.25;;;16.38;100.00
47897;BME280;39629;51.400;5.494;2023-06-26T21:38:02;101891.88;;;16.23;100.00
47897;BME280;39629;51.400;5.494;2023-06-26T21:43:03;101893.75;;;16.16;100.00
47897;BME280;39629;51.400;5.494;2023-06-26T21:48:05;101886.91;;;15.87;100.00
47897;BME280;39629;51.400;5.494;2023-06-26T21:53:08;101888.63;;;15.94;100.00
47897;BME280;39629;51.400;5.494;2023-06-26T21:58:10;101894.81;;;15.95;100.00
47897;BME280;39629;51.400;5.494;2023-06-26T22:03:11;101889.72;;;15.70;100.00
47897;BME280;39629;51.400;5.494;2023-06-26T22:08:14;101896.03;;;15.46;100.00
47897;BME280;39629;51.400;5.494;2023-06-26T22:13:16;101891.63;;;15.43;100.00
47897;BME280;39629;51.400;5.494;2023-06-26T22:18:19;101886.44;;;15.28;100.00
47897;BME280;39629;51.400;5.494;2023-06-26T22:23:21;101890.94;;;15.15;100.00
47897;BME280;39629;51.400;5.494;2023-06-26T22:28:23;101885.66;;;14.99;100.00
47897;BME280;39629;51.400;5.494;2023-06-26T22:33:25;101886.63;;;14.78;100.00
47897;BME280;39629;51.400;5.494;2023-06-26T22:38:28;101889.28;;;14.77;100.00
47897;BME280;39629;51.400;5.494;2023-06-26T22:43:30;101885.78;;;14.67;100.00
47897;BME280;39629;51.400;5.494;2023-06-26T22:48:31;101879.59;;;14.68;100.00
47897;BME280;39629;51.400;5.494;2023-06-26T22:53:34;101881.44;;;14.51;100.00
47897;BME280;39629;51.400;5.494;2023-06-26T22:58:36;101877.06;;;14.23;100.00
47897;BME280;39629;51.400;5.494;2023-06-26T23:03:38;101882.34;;;13.89;100.00
47897;BME280;39629;51.400;5.494;2023-06-26T23:08:41;101881.44;;;13.76;100.00
47897;BME280;39629;51.400;5.494;2023-06-26T23:13:42;101876.16;;;13.70;100.00
47897;BME280;39629;51.400;5.494;2023-06-26T23:18:44;101882.31;;;13.58;100.00
47897;BME280;39629;51.400;5.494;2023-06-26T23:23:47;101882.34;;;13.65;100.00
47897;BME280;39629;51.400;5.494;2023-06-26T23:28:49;101884.06;;;13.66;100.00
47897;BME280;39629;51.400;5.494;2023-06-26T23:33:51;101870.84;;;13.47;100.00
47897;BME280;39629;51.400;5.494;2023-06-26T23:38:54;101877.88;;;13.40;100.00
47897;BME280;39629;51.400;5.494;2023-06-26T23:43:55;101877.91;;;13.46;100.00
47897;BME280;39629;51.400;5.494;2023-06-26T23:48:57;101869.97;;;13.59;100.00
47897;BME280;39629;51.400;5.494;2023-06-26T23:54:00;101866.41;;;13.24;100.00
47897;BME280;39629;51.400;5.494;2023-06-26T23:59:01;101876.09;;;13.30;100.00
